UAL57 KEWR-LFPG
Flight info
| Callsign | UAL57 |
|---|---|
| Flight time | N/A |
| Altitude | 35000 |
| Route | MERIT DCT HFD DCT PUT DCT BOS DCT BRADD N175G PORTI/M081F350 DCT 47N050W 49N040W 51N030W 52N020W DCT MALOT DCT GISTI/N0457F350 DCT NORLA DCT PEWBI DCT OXLOW M140 SAM L620 MID/N0418F290 Y803 SFD UM605 BIBAX |
| Aircraft | B772/H-SDE2E3FGHIJ5LORVWXY/LB1D1 |
Departure
| Time | 2026-04-25 11:50 |
|---|---|
| Airport | Newark Liberty International Airport (KEWR) |
Arrival
| Time | N/A |
|---|---|
| Airport | Charles de Gaulle International Airport (LFPG) |
| Time | Latitude | Longitude | Altitude | Speed | Heading |
|---|---|---|---|---|---|
| 2026-04-25 10:44 | 40.69926 | -74.17954 | 26 ft | 0 kts | 184° |
| 2026-04-25 11:28 | 40.69933 | -74.17953 | 26 ft | 2 kts | 184° |
| 2026-04-25 11:28 | 40.69960 | -74.17940 | 25 ft | 4 kts | 219° |
| 2026-04-25 11:28 | 40.69979 | -74.17921 | 25 ft | 4 kts | 191° |
| 2026-04-25 11:28 | 40.69991 | -74.17920 | 24 ft | 4 kts | 131° |
| 2026-04-25 11:29 | 40.69997 | -74.17949 | 23 ft | 4 kts | 95° |
| 2026-04-25 11:29 | 40.69999 | -74.17974 | 23 ft | 0 kts | 95° |
| 2026-04-25 11:37 | 40.69998 | -74.17969 | 23 ft | 3 kts | 95° |
| 2026-04-25 11:37 | 40.69995 | -74.17914 | 25 ft | 9 kts | 95° |
| 2026-04-25 11:37 | 40.69988 | -74.17815 | 26 ft | 13 kts | 95° |
| 2026-04-25 11:37 | 40.69978 | -74.17682 | 26 ft | 16 kts | 95° |
| 2026-04-25 11:38 | 40.69967 | -74.17516 | 26 ft | 20 kts | 95° |
| 2026-04-25 11:38 | 40.69929 | -74.17342 | 26 ft | 20 kts | 120° |
| 2026-04-25 11:38 | 40.69843 | -74.17200 | 26 ft | 20 kts | 134° |
| 2026-04-25 11:38 | 40.69734 | -74.17086 | 26 ft | 20 kts | 148° |
| 2026-04-25 11:39 | 40.69609 | -74.17009 | 26 ft | 20 kts | 161° |
| 2026-04-25 11:39 | 40.69473 | -74.16975 | 26 ft | 20 kts | 175° |
| 2026-04-25 11:39 | 40.69337 | -74.16980 | 26 ft | 20 kts | 189° |
| 2026-04-25 11:39 | 40.69208 | -74.17044 | 28 ft | 20 kts | 206° |
| 2026-04-25 11:40 | 40.69083 | -74.17123 | 28 ft | 20 kts | 206° |
| 2026-04-25 11:40 | 40.68958 | -74.17202 | 30 ft | 20 kts | 205° |
| 2026-04-25 11:40 | 40.68834 | -74.17281 | 27 ft | 20 kts | 206° |
| 2026-04-25 11:40 | 40.68708 | -74.17361 | 27 ft | 20 kts | 206° |
| 2026-04-25 11:41 | 40.68584 | -74.17441 | 27 ft | 20 kts | 206° |
| 2026-04-25 11:41 | 40.68459 | -74.17520 | 27 ft | 20 kts | 206° |
| 2026-04-25 11:41 | 40.68334 | -74.17600 | 27 ft | 20 kts | 206° |
| 2026-04-25 11:41 | 40.68209 | -74.17678 | 29 ft | 20 kts | 205° |
| 2026-04-25 11:42 | 40.68086 | -74.17757 | 26 ft | 20 kts | 206° |
| 2026-04-25 11:42 | 40.67962 | -74.17836 | 26 ft | 20 kts | 205° |
| 2026-04-25 11:42 | 40.67837 | -74.17915 | 27 ft | 20 kts | 206° |
| 2026-04-25 11:42 | 40.67719 | -74.17990 | 27 ft | 18 kts | 206° |
| 2026-04-25 11:43 | 40.67622 | -74.18050 | 27 ft | 5 kts | 191° |
| 2026-04-25 11:43 | 40.67612 | -74.18045 | 27 ft | 0 kts | 159° |
| 2026-04-25 11:48 | 40.67597 | -74.18034 | 27 ft | 5 kts | 147° |
| 2026-04-25 11:48 | 40.67568 | -74.17990 | 27 ft | 7 kts | 117° |
| 2026-04-25 11:48 | 40.67571 | -74.17927 | 26 ft | 8 kts | 47° |
| 2026-04-25 11:49 | 40.67590 | -74.17913 | 27 ft | 0 kts | 26° |
| 2026-04-25 11:49 | 40.67595 | -74.17910 | 27 ft | 7 kts | 26° |
| 2026-04-25 11:49 | 40.67771 | -74.17796 | 27 ft | 58 kts | 26° |
| 2026-04-25 11:49 | 40.68339 | -74.17435 | 27 ft | 122 kts | 25° |
| 2026-04-25 11:50 | 40.69286 | -74.16840 | 37 ft | 176 kts | 27° |
| 2026-04-25 11:50 | 40.70374 | -74.16154 | 754 ft | 171 kts | 31° |
| 2026-04-25 11:50 | 40.71375 | -74.15269 | 1422 ft | 177 kts | 45° |
| 2026-04-25 11:50 | 40.72344 | -74.14116 | 1582 ft | 197 kts | 46° |
| 2026-04-25 11:51 | 40.73408 | -74.12814 | 1752 ft | 220 kts | 47° |
| 2026-04-25 11:51 | 40.74578 | -74.11383 | 1999 ft | 239 kts | 46° |
| 2026-04-25 11:51 | 40.75773 | -74.09830 | 2470 ft | 249 kts | 51° |
| 2026-04-25 11:51 | 40.76942 | -74.08084 | 3014 ft | 257 kts | 53° |
| 2026-04-25 11:52 | 40.78118 | -74.06273 | 3616 ft | 263 kts | 53° |
| 2026-04-25 11:52 | 40.79317 | -74.04430 | 4307 ft | 266 kts | 51° |
| 2026-04-25 11:52 | 40.80542 | -74.02548 | 4849 ft | 273 kts | 51° |
| 2026-04-25 11:52 | 40.81791 | -74.00632 | 5473 ft | 277 kts | 49° |
| 2026-04-25 11:53 | 40.83059 | -73.98691 | 6124 ft | 279 kts | 46° |
| 2026-04-25 11:53 | 40.84332 | -73.96746 | 6801 ft | 280 kts | 46° |
| 2026-04-25 11:53 | 40.85615 | -73.94792 | 7432 ft | 283 kts | 45° |
| 2026-04-25 11:53 | 40.86908 | -73.92824 | 8086 ft | 285 kts | 45° |
| 2026-04-25 11:54 | 40.88195 | -73.90865 | 8717 ft | 287 kts | 44° |
| 2026-04-25 11:54 | 40.89508 | -73.88867 | 9358 ft | 289 kts | 44° |
| 2026-04-25 11:54 | 40.92175 | -73.84800 | 10401 ft | 304 kts | 44° |
| 2026-04-25 11:55 | 40.93614 | -73.82618 | 10557 ft | 325 kts | 44° |
| 2026-04-25 11:55 | 40.95150 | -73.80284 | 10721 ft | 346 kts | 44° |
| 2026-04-25 11:55 | 40.96756 | -73.77832 | 11141 ft | 358 kts | 44° |
| 2026-04-25 11:55 | 40.98408 | -73.75303 | 11742 ft | 367 kts | 44° |
| 2026-04-25 11:56 | 41.00086 | -73.72728 | 12495 ft | 372 kts | 44° |
| 2026-04-25 11:56 | 41.01782 | -73.70121 | 13318 ft | 375 kts | 44° |
| 2026-04-25 11:56 | 41.03494 | -73.67490 | 14080 ft | 379 kts | 44° |
| 2026-04-25 11:56 | 41.05221 | -73.64833 | 14873 ft | 381 kts | 43° |
| 2026-04-25 11:57 | 41.06939 | -73.62189 | 15765 ft | 378 kts | 43° |
| 2026-04-25 11:57 | 41.08658 | -73.59541 | 16531 ft | 380 kts | 43° |
| 2026-04-25 11:57 | 41.10396 | -73.56867 | 17184 ft | 385 kts | 43° |
| 2026-04-25 11:57 | 41.12151 | -73.54166 | 17872 ft | 388 kts | 43° |
| 2026-04-25 11:58 | 41.13921 | -73.51439 | 18546 ft | 391 kts | 42° |
| 2026-04-25 11:58 | 41.15703 | -73.48689 | 19112 ft | 395 kts | 42° |
| 2026-04-25 11:58 | 41.17508 | -73.45903 | 19624 ft | 401 kts | 42° |
| 2026-04-25 11:58 | 41.19308 | -73.43121 | 20135 ft | 405 kts | 42° |
| 2026-04-25 11:59 | 41.21157 | -73.40260 | 20606 ft | 411 kts | 41° |
| 2026-04-25 11:59 | 41.23034 | -73.37356 | 21092 ft | 417 kts | 41° |
| 2026-04-25 11:59 | 41.24927 | -73.34419 | 21620 ft | 421 kts | 41° |
| 2026-04-25 12:00 | 41.28776 | -73.28439 | 22681 ft | 430 kts | 41° |
| 2026-04-25 12:00 | 41.30727 | -73.25402 | 23282 ft | 433 kts | 40° |
| 2026-04-25 12:00 | 41.34677 | -73.19244 | 24250 ft | 441 kts | 40° |
| 2026-04-25 12:01 | 41.36672 | -73.16130 | 24796 ft | 443 kts | 40° |
| 2026-04-25 12:01 | 41.38595 | -73.12887 | 25285 ft | 451 kts | 46° |
| 2026-04-25 12:01 | 41.40283 | -73.09309 | 25768 ft | 459 kts | 51° |
| 2026-04-25 12:01 | 41.41892 | -73.05617 | 26208 ft | 463 kts | 51° |
| 2026-04-25 12:02 | 41.45131 | -72.98136 | 27072 ft | 469 kts | 51° |
| 2026-04-25 12:02 | 41.46774 | -72.94373 | 27546 ft | 471 kts | 50° |
| 2026-04-25 12:02 | 41.48427 | -72.90603 | 27968 ft | 473 kts | 50° |
| 2026-04-25 12:03 | 41.50096 | -72.86802 | 28381 ft | 475 kts | 50° |
| 2026-04-25 12:03 | 41.51769 | -72.82994 | 28804 ft | 477 kts | 50° |
| 2026-04-25 12:03 | 41.53452 | -72.79162 | 28970 ft | 482 kts | 50° |
| 2026-04-25 12:03 | 41.55154 | -72.75284 | 28840 ft | 483 kts | 50° |
| 2026-04-25 12:04 | 41.58511 | -72.67588 | 28754 ft | 477 kts | 50° |
| 2026-04-25 12:04 | 41.60178 | -72.63768 | 28878 ft | 475 kts | 50° |
| 2026-04-25 12:04 | 41.61846 | -72.59949 | 29103 ft | 479 kts | 49° |
| 2026-04-25 12:05 | 41.65211 | -72.52257 | 29141 ft | 476 kts | 49° |
| 2026-04-25 12:05 | 41.68709 | -72.44790 | 29148 ft | 473 kts | 47° |
| 2026-04-25 12:06 | 41.72263 | -72.37358 | 29151 ft | 475 kts | 47° |
| 2026-04-25 12:06 | 41.75800 | -72.29876 | 29145 ft | 476 kts | 47° |
| 2026-04-25 12:07 | 41.79290 | -72.22418 | 29150 ft | 475 kts | 47° |
| 2026-04-25 12:07 | 41.82775 | -72.14930 | 29167 ft | 472 kts | 47° |
| 2026-04-25 12:08 | 41.84520 | -72.11183 | 29368 ft | 475 kts | 47° |
| 2026-04-25 12:08 | 41.86276 | -72.07409 | 29800 ft | 476 kts | 47° |
| 2026-04-25 12:08 | 41.88025 | -72.03639 | 30233 ft | 476 kts | 47° |
| 2026-04-25 12:08 | 41.89779 | -71.99858 | 30528 ft | 478 kts | 47° |
| 2026-04-25 12:09 | 41.91542 | -71.96057 | 30765 ft | 481 kts | 47° |
| 2026-04-25 12:09 | 41.93313 | -71.92231 | 30986 ft | 484 kts | 47° |
| 2026-04-25 12:09 | 41.95092 | -71.88381 | 31269 ft | 485 kts | 47° |
| 2026-04-25 12:09 | 41.96870 | -71.84523 | 31550 ft | 486 kts | 47° |
| 2026-04-25 12:10 | 41.98649 | -71.80656 | 31840 ft | 487 kts | 47° |
| 2026-04-25 12:10 | 42.00427 | -71.76788 | 32147 ft | 486 kts | 47° |
| 2026-04-25 12:10 | 42.02180 | -71.72967 | 32502 ft | 485 kts | 47° |
| 2026-04-25 12:10 | 42.03946 | -71.69114 | 32860 ft | 483 kts | 47° |
| 2026-04-25 12:11 | 42.05707 | -71.65267 | 33191 ft | 482 kts | 47° |
| 2026-04-25 12:11 | 42.07466 | -71.61425 | 33507 ft | 482 kts | 46° |
| 2026-04-25 12:11 | 42.09220 | -71.57589 | 33831 ft | 481 kts | 46° |
| 2026-04-25 12:11 | 42.10967 | -71.53759 | 34301 ft | 477 kts | 46° |
| 2026-04-25 12:12 | 42.12688 | -71.49974 | 34736 ft | 472 kts | 46° |
| 2026-04-25 12:12 | 42.13847 | -71.47426 | 34941 ft | 472 kts | 46° |
| 2026-04-25 12:12 | 42.16129 | -71.42423 | 35071 ft | 475 kts | 47° |
| 2026-04-25 12:12 | 42.17860 | -71.38622 | 35116 ft | 476 kts | 47° |
| 2026-04-25 12:13 | 42.21311 | -71.31012 | 35142 ft | 475 kts | 47° |
| 2026-04-25 12:13 | 42.24739 | -71.23423 | 35167 ft | 473 kts | 47° |
| 2026-04-25 12:14 | 42.28157 | -71.15846 | 35177 ft | 472 kts | 47° |
| 2026-04-25 12:14 | 42.31570 | -71.08265 | 35169 ft | 472 kts | 47° |
| 2026-04-25 12:15 | 42.34910 | -71.00603 | 35162 ft | 479 kts | 52° |
| 2026-04-25 12:15 | 42.37380 | -70.92059 | 35169 ft | 496 kts | 62° |
| 2026-04-25 12:16 | 42.39287 | -70.83060 | 35175 ft | 499 kts | 63° |
| 2026-04-25 12:16 | 42.40861 | -70.75546 | 35162 ft | 500 kts | 63° |
| 2026-04-25 12:17 | 42.42782 | -70.66507 | 35151 ft | 500 kts | 63° |
| 2026-04-25 12:17 | 42.45034 | -70.56013 | 35143 ft | 500 kts | 62° |
| 2026-04-25 12:18 | 42.46969 | -70.46984 | 35145 ft | 500 kts | 62° |
| 2026-04-25 12:18 | 42.48585 | -70.39403 | 35141 ft | 500 kts | 62° |
| 2026-04-25 12:19 | 42.51460 | -70.25839 | 35141 ft | 499 kts | 62° |
| 2026-04-25 12:20 | 42.53367 | -70.16791 | 35156 ft | 499 kts | 62° |
| 2026-04-25 12:20 | 42.55268 | -70.07736 | 35136 ft | 499 kts | 62° |
| 2026-04-25 12:21 | 42.57160 | -69.98684 | 35132 ft | 498 kts | 62° |
| 2026-04-25 12:21 | 42.59028 | -69.89703 | 35131 ft | 498 kts | 62° |
| 2026-04-25 12:22 | 42.60904 | -69.80656 | 35147 ft | 499 kts | 62° |
| 2026-04-25 12:22 | 42.62776 | -69.71585 | 35137 ft | 499 kts | 62° |
| 2026-04-25 12:23 | 42.64641 | -69.62501 | 35129 ft | 499 kts | 62° |
| 2026-04-25 12:23 | 42.66499 | -69.53412 | 35126 ft | 499 kts | 63° |
| 2026-04-25 12:24 | 42.68352 | -69.44311 | 35126 ft | 500 kts | 63° |
| 2026-04-25 12:24 | 42.70199 | -69.35196 | 35120 ft | 500 kts | 64° |
| 2026-04-25 12:25 | 42.72040 | -69.26068 | 35125 ft | 501 kts | 64° |
| 2026-04-25 12:25 | 42.73874 | -69.16935 | 35142 ft | 501 kts | 65° |
| 2026-04-25 12:26 | 42.75703 | -69.07783 | 35117 ft | 501 kts | 65° |
| 2026-04-25 12:26 | 42.77523 | -68.98631 | 35110 ft | 501 kts | 65° |
| 2026-04-25 12:27 | 42.79335 | -68.89482 | 35111 ft | 501 kts | 65° |
| 2026-04-25 12:27 | 42.81141 | -68.80323 | 35112 ft | 501 kts | 65° |
| 2026-04-25 12:28 | 42.82938 | -68.71163 | 35102 ft | 501 kts | 65° |
| 2026-04-25 12:28 | 42.84730 | -68.61988 | 35100 ft | 501 kts | 65° |
| 2026-04-25 12:29 | 42.86512 | -68.52821 | 35136 ft | 500 kts | 65° |
| 2026-04-25 12:29 | 42.88276 | -68.43709 | 35104 ft | 500 kts | 66° |
| 2026-04-25 12:30 | 42.90041 | -68.34541 | 35108 ft | 500 kts | 66° |
| 2026-04-25 12:30 | 42.91798 | -68.25373 | 35096 ft | 499 kts | 66° |
| 2026-04-25 12:31 | 42.93544 | -68.16219 | 35095 ft | 498 kts | 66° |
| 2026-04-25 12:31 | 42.95283 | -68.07065 | 35094 ft | 498 kts | 67° |
| 2026-04-25 12:32 | 42.97010 | -67.97924 | 35082 ft | 497 kts | 67° |
| 2026-04-25 12:32 | 42.98727 | -67.88791 | 35087 ft | 496 kts | 67° |
| 2026-04-25 12:33 | 43.00436 | -67.79672 | 35104 ft | 495 kts | 68° |
| 2026-04-25 12:33 | 43.02134 | -67.70552 | 35089 ft | 495 kts | 68° |
| 2026-04-25 12:34 | 43.03824 | -67.61433 | 35085 ft | 495 kts | 68° |
| 2026-04-25 12:34 | 43.05494 | -67.52378 | 35079 ft | 494 kts | 68° |
| 2026-04-25 12:35 | 43.07168 | -67.43262 | 35079 ft | 495 kts | 68° |
| 2026-04-25 12:35 | 43.08837 | -67.34135 | 35098 ft | 495 kts | 69° |
| 2026-04-25 12:36 | 43.10499 | -67.24992 | 35078 ft | 495 kts | 69° |
| 2026-04-25 12:36 | 43.12151 | -67.15854 | 35073 ft | 495 kts | 69° |
| 2026-04-25 12:37 | 43.13798 | -67.06711 | 35058 ft | 494 kts | 69° |
| 2026-04-25 12:37 | 43.15624 | -66.97683 | 35048 ft | 487 kts | 62° |
| 2026-04-25 12:38 | 43.18206 | -66.89181 | 35065 ft | 483 kts | 60° |
| 2026-04-25 12:38 | 43.20836 | -66.80698 | 35055 ft | 484 kts | 60° |
| 2026-04-25 12:39 | 43.23436 | -66.72192 | 35072 ft | 484 kts | 61° |
| 2026-04-25 12:39 | 43.26011 | -66.63660 | 35049 ft | 484 kts | 61° |
| 2026-04-25 12:40 | 43.28570 | -66.55125 | 35040 ft | 483 kts | 62° |
| 2026-04-25 12:40 | 43.31120 | -66.46596 | 35049 ft | 483 kts | 62° |
| 2026-04-25 12:41 | 43.33661 | -66.38074 | 35031 ft | 482 kts | 62° |
| 2026-04-25 12:41 | 43.36176 | -66.29615 | 35035 ft | 481 kts | 62° |
| 2026-04-25 12:42 | 43.38698 | -66.21101 | 35050 ft | 481 kts | 62° |
| 2026-04-25 12:42 | 43.41219 | -66.12568 | 35047 ft | 482 kts | 63° |
| 2026-04-25 12:43 | 43.43737 | -66.04015 | 35026 ft | 483 kts | 63° |
| 2026-04-25 12:43 | 43.47505 | -65.91154 | 35016 ft | 484 kts | 63° |
| 2026-04-25 12:44 | 43.50018 | -65.82543 | 35011 ft | 484 kts | 63° |
| 2026-04-25 12:45 | 43.53772 | -65.69625 | 35012 ft | 484 kts | 64° |
| 2026-04-25 12:45 | 43.57506 | -65.56701 | 34997 ft | 483 kts | 64° |
| 2026-04-25 12:46 | 43.59977 | -65.48116 | 34997 ft | 481 kts | 64° |
| 2026-04-25 12:46 | 43.62435 | -65.39549 | 34993 ft | 480 kts | 64° |
| 2026-04-25 12:47 | 43.64882 | -65.30993 | 35000 ft | 479 kts | 65° |
| 2026-04-25 12:47 | 43.67317 | -65.22445 | 34986 ft | 478 kts | 65° |
| 2026-04-25 12:48 | 43.69740 | -65.13911 | 34990 ft | 477 kts | 65° |
| 2026-04-25 12:48 | 43.72153 | -65.05383 | 34982 ft | 475 kts | 65° |
| 2026-04-25 12:49 | 43.74535 | -64.96935 | 34989 ft | 474 kts | 65° |
| 2026-04-25 12:49 | 43.76917 | -64.88459 | 34974 ft | 472 kts | 65° |
| 2026-04-25 12:50 | 43.79285 | -64.80005 | 34969 ft | 470 kts | 65° |
| 2026-04-25 12:50 | 43.81639 | -64.71572 | 34975 ft | 469 kts | 65° |
| 2026-04-25 12:51 | 43.83984 | -64.63141 | 34959 ft | 469 kts | 65° |
| 2026-04-25 12:51 | 43.86327 | -64.54692 | 34972 ft | 470 kts | 65° |
| 2026-04-25 12:52 | 43.88663 | -64.46236 | 34953 ft | 470 kts | 65° |
| 2026-04-25 12:52 | 43.90989 | -64.37784 | 34951 ft | 469 kts | 65° |
| 2026-04-25 12:53 | 43.93310 | -64.29323 | 34949 ft | 469 kts | 66° |
| 2026-04-25 12:53 | 43.95623 | -64.20865 | 34944 ft | 469 kts | 66° |
| 2026-04-25 12:54 | 43.97928 | -64.12406 | 34941 ft | 468 kts | 66° |
| 2026-04-25 12:54 | 44.00221 | -64.03958 | 34934 ft | 467 kts | 66° |
| 2026-04-25 12:55 | 44.02120 | -63.96940 | 34938 ft | 467 kts | 66° |
| 2026-04-25 12:55 | 44.04763 | -63.87140 | 34929 ft | 466 kts | 66° |
| 2026-04-25 12:56 | 44.07030 | -63.78705 | 34922 ft | 466 kts | 66° |
| 2026-04-25 12:56 | 44.09288 | -63.70269 | 34928 ft | 465 kts | 66° |
| 2026-04-25 12:57 | 44.11540 | -63.61828 | 34912 ft | 465 kts | 66° |
| 2026-04-25 12:57 | 44.13785 | -63.53384 | 34905 ft | 465 kts | 66° |
| 2026-04-25 12:58 | 44.16024 | -63.44934 | 34920 ft | 465 kts | 66° |
| 2026-04-25 12:58 | 44.18258 | -63.36471 | 34902 ft | 465 kts | 66° |
| 2026-04-25 12:59 | 44.20486 | -63.27999 | 34888 ft | 465 kts | 66° |
| 2026-04-25 12:59 | 44.22701 | -63.19549 | 34887 ft | 464 kts | 67° |
| 2026-04-25 13:00 | 44.24164 | -63.13949 | 34888 ft | 464 kts | 67° |
| 2026-04-25 13:00 | 44.27107 | -63.02646 | 34880 ft | 463 kts | 67° |
| 2026-04-25 13:01 | 44.29299 | -62.94193 | 34881 ft | 463 kts | 67° |
| 2026-04-25 13:01 | 44.31486 | -62.85730 | 34881 ft | 463 kts | 67° |
| 2026-04-25 13:02 | 44.33666 | -62.77264 | 34869 ft | 463 kts | 67° |
| 2026-04-25 13:02 | 44.35824 | -62.68849 | 34859 ft | 463 kts | 67° |
| 2026-04-25 13:03 | 44.37992 | -62.60367 | 34860 ft | 463 kts | 67° |
| 2026-04-25 13:03 | 44.40151 | -62.51892 | 34863 ft | 463 kts | 67° |
| 2026-04-25 13:04 | 44.42304 | -62.43406 | 34853 ft | 463 kts | 68° |
| 2026-04-25 13:04 | 44.44451 | -62.34913 | 34844 ft | 463 kts | 68° |
| 2026-04-25 13:05 | 44.46592 | -62.26411 | 34843 ft | 463 kts | 68° |
| 2026-04-25 13:05 | 44.48727 | -62.17907 | 34834 ft | 463 kts | 68° |
| 2026-04-25 13:06 | 44.50856 | -62.09392 | 34834 ft | 463 kts | 68° |
| 2026-04-25 13:06 | 44.52979 | -62.00867 | 34830 ft | 464 kts | 68° |
| 2026-04-25 13:07 | 44.55098 | -61.92330 | 34822 ft | 464 kts | 68° |
| 2026-04-25 13:07 | 44.57210 | -61.83788 | 34817 ft | 464 kts | 68° |
| 2026-04-25 13:08 | 44.58962 | -61.76679 | 34815 ft | 464 kts | 68° |
| 2026-04-25 13:08 | 44.61404 | -61.66729 | 34810 ft | 464 kts | 68° |
| 2026-04-25 13:09 | 44.63500 | -61.58157 | 34807 ft | 464 kts | 68° |
| 2026-04-25 13:09 | 44.65249 | -61.50980 | 34791 ft | 463 kts | 68° |
| 2026-04-25 13:10 | 44.67329 | -61.42411 | 34791 ft | 463 kts | 68° |
| 2026-04-25 13:10 | 44.69387 | -61.33903 | 34788 ft | 463 kts | 69° |
| 2026-04-25 13:11 | 44.71452 | -61.25335 | 34780 ft | 463 kts | 69° |
| 2026-04-25 13:11 | 44.73509 | -61.16763 | 34788 ft | 462 kts | 69° |
| 2026-04-25 13:12 | 44.75558 | -61.08193 | 34773 ft | 462 kts | 69° |
| 2026-04-25 13:12 | 44.77256 | -61.01068 | 34759 ft | 462 kts | 69° |
| 2026-04-25 13:13 | 44.79633 | -60.91053 | 34759 ft | 461 kts | 69° |
| 2026-04-25 13:13 | 44.81658 | -60.82485 | 34757 ft | 461 kts | 69° |
| 2026-04-25 13:14 | 44.83675 | -60.73919 | 34745 ft | 460 kts | 69° |
| 2026-04-25 13:14 | 44.85685 | -60.65351 | 34742 ft | 460 kts | 69° |
| 2026-04-25 13:15 | 44.87686 | -60.56785 | 34751 ft | 460 kts | 69° |
| 2026-04-25 13:15 | 44.89683 | -60.48208 | 34736 ft | 460 kts | 70° |
| 2026-04-25 13:16 | 44.91672 | -60.39627 | 34729 ft | 460 kts | 69° |
| 2026-04-25 13:16 | 44.93654 | -60.31044 | 34721 ft | 460 kts | 69° |
| 2026-04-25 13:17 | 44.95618 | -60.22504 | 34719 ft | 460 kts | 70° |
| 2026-04-25 13:17 | 44.97589 | -60.13899 | 34720 ft | 460 kts | 69° |
| 2026-04-25 13:18 | 44.99553 | -60.05292 | 34716 ft | 460 kts | 70° |
| 2026-04-25 13:18 | 45.01511 | -59.96677 | 34725 ft | 461 kts | 70° |
| 2026-04-25 13:19 | 45.03464 | -59.88050 | 34710 ft | 461 kts | 70° |
| 2026-04-25 13:19 | 45.05095 | -59.80820 | 34704 ft | 461 kts | 70° |
| 2026-04-25 13:20 | 45.07348 | -59.70790 | 34690 ft | 460 kts | 70° |
| 2026-04-25 13:20 | 45.09277 | -59.62165 | 34700 ft | 460 kts | 70° |
| 2026-04-25 13:21 | 45.11198 | -59.53538 | 34688 ft | 459 kts | 70° |
| 2026-04-25 13:21 | 45.13108 | -59.44930 | 34680 ft | 458 kts | 70° |
| 2026-04-25 13:22 | 45.15008 | -59.36333 | 34684 ft | 457 kts | 70° |
| 2026-04-25 13:23 | 45.17844 | -59.23429 | 34671 ft | 457 kts | 70° |
| 2026-04-25 13:23 | 45.19725 | -59.14832 | 34666 ft | 457 kts | 70° |
| 2026-04-25 13:24 | 45.21585 | -59.06290 | 34656 ft | 456 kts | 70° |
| 2026-04-25 13:24 | 45.23448 | -58.97702 | 34654 ft | 455 kts | 70° |
| 2026-04-25 13:25 | 45.25305 | -58.89108 | 34645 ft | 456 kts | 70° |
| 2026-04-25 13:25 | 45.27156 | -58.80506 | 34658 ft | 456 kts | 70° |
| 2026-04-25 13:26 | 45.29003 | -58.71884 | 34651 ft | 457 kts | 71° |
| 2026-04-25 13:26 | 45.30851 | -58.63226 | 34636 ft | 459 kts | 71° |
| 2026-04-25 13:27 | 45.32696 | -58.54538 | 34631 ft | 460 kts | 71° |
| 2026-04-25 13:27 | 45.34539 | -58.45828 | 34627 ft | 460 kts | 71° |
| 2026-04-25 13:28 | 45.36378 | -58.37099 | 34620 ft | 461 kts | 71° |
| 2026-04-25 13:28 | 45.38210 | -58.28366 | 34618 ft | 461 kts | 71° |
| 2026-04-25 13:29 | 45.40036 | -58.19621 | 34612 ft | 461 kts | 71° |
| 2026-04-25 13:29 | 45.41857 | -58.10866 | 34611 ft | 462 kts | 71° |
| 2026-04-25 13:30 | 45.44578 | -57.97712 | 34603 ft | 462 kts | 71° |
| 2026-04-25 13:31 | 45.47269 | -57.84615 | 34598 ft | 461 kts | 71° |
| 2026-04-25 13:31 | 45.49063 | -57.75838 | 34584 ft | 461 kts | 71° |
| 2026-04-25 13:32 | 45.50851 | -57.67055 | 34580 ft | 461 kts | 71° |
| 2026-04-25 13:32 | 45.52631 | -57.58269 | 34575 ft | 461 kts | 71° |
| 2026-04-25 13:33 | 45.54404 | -57.49481 | 34584 ft | 462 kts | 71° |
| 2026-04-25 13:33 | 45.56173 | -57.40672 | 34574 ft | 462 kts | 72° |
| 2026-04-25 13:34 | 45.57935 | -57.31860 | 34566 ft | 462 kts | 72° |
| 2026-04-25 13:34 | 45.59688 | -57.23048 | 34556 ft | 461 kts | 72° |
| 2026-04-25 13:35 | 45.61435 | -57.14232 | 34551 ft | 461 kts | 72° |
| 2026-04-25 13:35 | 45.63173 | -57.05420 | 34543 ft | 461 kts | 72° |
| 2026-04-25 13:36 | 45.64904 | -56.96606 | 34548 ft | 461 kts | 72° |
| 2026-04-25 13:36 | 45.66628 | -56.87784 | 34544 ft | 461 kts | 72° |
| 2026-04-25 13:37 | 45.68335 | -56.79011 | 34521 ft | 461 kts | 72° |
| 2026-04-25 13:37 | 45.70047 | -56.70170 | 34528 ft | 461 kts | 72° |
| 2026-04-25 13:38 | 45.71753 | -56.61322 | 34531 ft | 461 kts | 72° |
| 2026-04-25 13:38 | 45.73453 | -56.52463 | 34536 ft | 462 kts | 72° |
| 2026-04-25 13:39 | 45.75147 | -56.43600 | 34518 ft | 461 kts | 72° |
| 2026-04-25 13:39 | 45.76831 | -56.34738 | 34508 ft | 461 kts | 72° |
| 2026-04-25 13:40 | 45.78509 | -56.25872 | 34504 ft | 461 kts | 72° |
| 2026-04-25 13:40 | 45.80179 | -56.17008 | 34490 ft | 461 kts | 72° |
| 2026-04-25 13:41 | 45.81841 | -56.08140 | 34496 ft | 461 kts | 72° |
| 2026-04-25 13:41 | 45.83498 | -55.99263 | 34491 ft | 461 kts | 72° |
| 2026-04-25 13:42 | 45.85148 | -55.90378 | 34477 ft | 461 kts | 72° |
| 2026-04-25 13:42 | 45.86791 | -55.81489 | 34478 ft | 461 kts | 73° |
| 2026-04-25 13:43 | 45.88427 | -55.72594 | 34480 ft | 461 kts | 73° |
| 2026-04-25 13:43 | 45.90046 | -55.63745 | 34484 ft | 461 kts | 73° |
| 2026-04-25 13:44 | 45.91670 | -55.54833 | 34474 ft | 461 kts | 73° |
| 2026-04-25 13:44 | 45.93284 | -55.45928 | 34460 ft | 461 kts | 73° |
| 2026-04-25 13:45 | 45.94889 | -55.37029 | 34452 ft | 460 kts | 73° |
| 2026-04-25 13:45 | 45.96487 | -55.28131 | 34455 ft | 460 kts | 73° |
| 2026-04-25 13:46 | 45.98078 | -55.19224 | 34449 ft | 460 kts | 73° |
| 2026-04-25 13:46 | 45.99664 | -55.10304 | 34444 ft | 461 kts | 73° |
| 2026-04-25 13:47 | 46.01244 | -55.01371 | 34448 ft | 461 kts | 73° |
| 2026-04-25 13:47 | 46.02820 | -54.92416 | 34435 ft | 462 kts | 73° |
| 2026-04-25 13:48 | 46.04394 | -54.83432 | 34422 ft | 463 kts | 73° |
| 2026-04-25 13:48 | 46.05962 | -54.74432 | 34423 ft | 463 kts | 73° |
| 2026-04-25 13:49 | 46.07522 | -54.65429 | 34418 ft | 463 kts | 73° |
| 2026-04-25 13:49 | 46.09074 | -54.56429 | 34404 ft | 463 kts | 73° |
| 2026-04-25 13:50 | 46.10619 | -54.47428 | 34400 ft | 463 kts | 74° |
| 2026-04-25 13:50 | 46.12156 | -54.38425 | 34403 ft | 462 kts | 74° |
| 2026-04-25 13:51 | 46.13677 | -54.29471 | 34395 ft | 463 kts | 74° |
| 2026-04-25 13:51 | 46.15204 | -54.20431 | 34392 ft | 465 kts | 74° |
| 2026-04-25 13:52 | 46.16729 | -54.11358 | 34381 ft | 466 kts | 74° |
| 2026-04-25 13:52 | 46.18249 | -54.02262 | 34377 ft | 466 kts | 74° |
| 2026-04-25 13:53 | 46.19763 | -53.93158 | 34367 ft | 467 kts | 74° |
| 2026-04-25 13:53 | 46.21270 | -53.84051 | 34355 ft | 466 kts | 74° |
| 2026-04-25 13:54 | 46.22769 | -53.74940 | 34352 ft | 466 kts | 75° |
| 2026-04-25 13:54 | 46.24262 | -53.65817 | 34355 ft | 467 kts | 75° |
| 2026-04-25 13:55 | 46.25751 | -53.56667 | 34331 ft | 468 kts | 75° |